Terminal Aerodrome Forecast
Issued by NWS Sterling, VA

Current Version | Previous Version | Text Only | Print | Product List | Glossary Off
Versions: 1 2 3 4 5 6 7 8 9 10 11 12 13 14 15 16 17 18 19 20 21 22

000
FTUS41 KLWX 270533
TAFDCA
TAF
KDCA 270533Z 2706/2806 15004KT P6SM SKC
     FM270800 VRB03KT 5SM BR BKN010
     FM271000 15004KT 2SM BR OVC008
     FM271300 17005KT 5SM BR SCT010
     FM271500 17006KT P6SM SCT250
     FM271700 18011G18KT P6SM FEW250
     FM280300 19008KT P6SM BKN050=

USA.gov is the U.S. government's official web portal to all federal, state and local government web resources and services.